Airfield :
LOGIN :

Register | Disclaimer

   EN    FR    IT 

 










Legend :    VFR   Marginal VFR   IFR   Intensive IFR   Very Intensive IFR
Visi :
Ceiling :
>= 8 km
>= 3000ft
5 to 8 km
1000 to 3000 ft
1500m to 5 km
500 to 1000 ft
800 to 1500m
200 to 500 ft
< 800m
< 200 ft
Symbols :   Thunderstorms  Fog  Heavy snow  Heavy precipitations  Wind > 20 kt
SIGMETs :     Misc.  Thunderstorms  Icing  Turbulence  Mountain Waves  Volcanic Ashes






- Airport Elevation : 179 ft


LIPI - Rivolto AFB Udine

CURRENT METAR :
  • 291055Z 13006KT 9999 TS FEW010 FEW030CB BKN040 19/18 Q0998 RMK OVC VIS MIN 8000W WIND THR06 16007KT WIND THR24 14007KT BLU

EXPIRED METARs :
  • 290955Z 06004KT 9999 -TS RA FEW025CB BKN040 18/15 Q0999 RMK OVC VIS MIN 6000S WIND THR06 10004KT WIND THR24 09004KT WHT
  • 290922Z 05005KT 9999 TS FEW035CB SCT040 19/15 Q0999 RMK BKN VIS MIN 9999 WIND THR06 09004KT WIND THR24 08005KT BLU
  • 290855Z 04004KT 9999 SCT040 SCT070 18/14 Q0999 RMK BKN VIS MIN 9999 WIND THR06 07004KT WIND THR24 06004KT BLU

TAF TAF LIPI
Valid from the 29 at 09:00 until the 29 at 18:00 UTC


290800Z 2909/2918 VRB05KT 9999 SCT040 SCT070
TEMPO 2911/2918 08010KT 4000 TSRA FEW025CB BKN035



MET'MAP, your aeronautical weather chart ! - Copyright ORBIFLY December 2007 - Disclaimer

ORBIFLY MET'MAP TEAM :

Programming & Development : Alexandra Zaïnal
Original concept : Baudouin d'Aumeries
Technical & hardware support : Manuel Goepfert
Assistance : Marc-Olivier Méhu




SOURCES & CREDITS :

   NOAA